Time;durP1;ratioP1;P1;durP2;ratioP2;P2;SDS_P1;SDS_P2;PMS_P1;PMS_P2;Temp;Humidity;BMP_temperature;BMP_pressure;BME280_temperature;BME280_humidity;BME280_pressure;Samples;Min_cycle;Max_cycle;Signal;HPM_P1;HPM_P2
2022/01/30 00:00:57;;;;;;;11.15;2.75;;;;;;;;;;4376824;32;20635;-56
2022/01/30 00:03:26;;;;;;;11.38;3.17;;;;;;;;;;4381033;32;20472;-50
2022/01/30 00:05:54;;;;;;;9.43;2.92;;;;;;;;;;4378922;32;20099;-53
2022/01/30 00:08:22;;;;;;;11.43;3.22;;;;;;;;;;4377919;32;20102;-50
2022/01/30 00:10:57;;;;;;;7.65;2.33;;;;;;;;;;4376596;32;20062;-52
2022/01/30 00:13:27;;;;;;;11.20;3.45;;;;;;;;;;4376912;32;20072;-53
2022/01/30 00:15:56;;;;;;;10.45;3.20;;;;;;;;;;4376650;32;20661;-52
2022/01/30 00:21:34;;;;;;;14.63;3.05;;;;;;;;;;4371382;32;20082;-54
2022/01/30 00:24:11;;;;;;;13.25;3.00;;;;;;;;;;4374167;32;20062;-51
2022/01/30 00:26:41;;;;;;;16.87;2.87;;;;;;;;;;4371049;32;20040;-55
2022/01/30 00:29:09;;;;;;;11.63;2.95;;;;;;;;;;4377106;32;20051;-52
2022/01/30 00:31:39;;;;;;;12.77;3.10;;;;;;;;;;4372053;32;20054;-54
2022/01/30 00:34:28;;;;;;;11.65;2.90;;;;;;;;;;4375051;32;20406;-55
2022/01/30 00:36:56;;;;;;;11.20;3.10;;;;;;;;;;4376676;32;20050;-53
2022/01/30 00:39:26;;;;;;;12.52;2.83;;;;;;;;;;4382972;32;20036;-53
2022/01/30 00:41:55;;;;;;;16.05;3.00;;;;;;;;;;4380571;32;20110;-50
2022/01/30 00:44:24;;;;;;;12.40;3.17;;;;;;;;;;4381379;32;20051;-50
2022/01/30 00:46:54;;;;;;;9.88;2.75;;;;;;;;;;4382465;32;20105;-54
2022/01/30 00:49:23;;;;;;;10.32;3.28;;;;;;;;;;4379367;32;20035;-52
2022/01/30 00:51:51;;;;;;;16.35;3.35;;;;;;;;;;4377799;32;20101;-53
2022/01/30 00:54:20;;;;;;;13.20;2.72;;;;;;;;;;4379037;32;20106;-53
2022/01/30 00:56:48;;;;;;;11.10;3.03;;;;;;;;;;4377342;32;20044;-54
2022/01/30 00:59:16;;;;;;;14.27;3.45;;;;;;;;;;4377400;32;20083;-53
2022/01/30 01:01:45;;;;;;;9.63;2.50;;;;;;;;;;4379783;32;21035;-50
2022/01/30 01:04:14;;;;;;;15.43;3.42;;;;;;;;;;4379656;32;20128;-53
2022/01/30 01:06:48;;;;;;;11.07;2.92;;;;;;;;;;4379630;32;20077;-53
2022/01/30 01:09:21;;;;;;;11.70;3.22;;;;;;;;;;4378735;32;20069;-52
2022/01/30 01:12:27;;;;;;;11.88;3.10;;;;;;;;;;4380425;32;20043;-52
2022/01/30 01:25:54;;;;;;;11.35;2.60;;;;;;;;;;4379990;32;20055;-51
2022/01/30 01:28:22;;;;;;;11.18;2.30;;;;;;;;;;4379283;32;20073;-53
2022/01/30 01:30:51;;;;;;;11.30;3.10;;;;;;;;;;4378192;32;20043;-54
2022/01/30 01:33:21;;;;;;;9.50;2.87;;;;;;;;;;4378002;32;20065;-54
2022/01/30 01:35:49;;;;;;;12.07;2.53;;;;;;;;;;4382004;32;20129;-52
2022/01/30 01:38:19;;;;;;;13.70;3.37;;;;;;;;;;4382102;32;20043;-54
2022/01/30 01:40:52;;;;;;;11.93;3.05;;;;;;;;;;4379450;32;20078;-52
2022/01/30 01:43:22;;;;;;;9.63;2.70;;;;;;;;;;4382245;32;20096;-51
2022/01/30 01:45:54;;;;;;;14.98;3.60;;;;;;;;;;4381366;32;20086;-54
2022/01/30 01:48:23;;;;;;;10.23;3.10;;;;;;;;;;4377087;32;20119;-52
2022/01/30 01:51:05;;;;;;;15.82;3.33;;;;;;;;;;4376276;32;20403;-52
2022/01/30 01:53:34;;;;;;;10.43;2.97;;;;;;;;;;4379104;32;20426;-55
2022/01/30 01:56:03;;;;;;;14.60;3.22;;;;;;;;;;4378980;32;20708;-53
2022/01/30 01:58:31;;;;;;;17.48;3.65;;;;;;;;;;4381948;32;20075;-54
2022/01/30 02:01:02;;;;;;;12.25;3.42;;;;;;;;;;4379228;32;20040;-55
2022/01/30 02:03:35;;;;;;;17.08;3.42;;;;;;;;;;4382934;32;20055;-52
2022/01/30 02:06:05;;;;;;;13.38;2.97;;;;;;;;;;4384455;32;20075;-52
2022/01/30 02:08:37;;;;;;;15.15;3.25;;;;;;;;;;4384273;32;20464;-53
2022/01/30 02:11:10;;;;;;;15.20;3.55;;;;;;;;;;4382410;32;20144;-55
2022/01/30 02:25:11;;;;;;;16.87;3.30;;;;;;;;;;4384325;32;20070;-53
2022/01/30 02:27:40;;;;;;;20.00;3.67;;;;;;;;;;4375400;32;20047;-56
2022/01/30 02:30:10;;;;;;;20.00;3.90;;;;;;;;;;4378103;32;20054;-55
2022/01/30 02:32:38;;;;;;;20.67;4.43;;;;;;;;;;4387213;32;20069;-56
2022/01/30 02:35:07;;;;;;;21.30;3.58;;;;;;;;;;4379802;32;20057;-52
2022/01/30 02:37:35;;;;;;;16.17;3.97;;;;;;;;;;4383657;32;20100;-53
2022/01/30 02:40:07;;;;;;;23.60;4.40;;;;;;;;;;4373888;32;20050;-51
2022/01/30 02:42:40;;;;;;;28.98;4.28;;;;;;;;;;4378304;32;20054;-54
2022/01/30 02:45:11;;;;;;;22.20;4.20;;;;;;;;;;4374047;32;20067;-55
2022/01/30 02:50:18;;;;;;;23.70;4.53;;;;;;;;;;4376405;32;20125;-55
2022/01/30 02:52:56;;;;;;;21.30;4.05;;;;;;;;;;4372353;32;20063;-54
2022/01/30 02:55:24;;;;;;;21.90;4.25;;;;;;;;;;4383762;32;20405;-52
2022/01/30 02:57:54;;;;;;;25.62;4.22;;;;;;;;;;4378201;32;20049;-52
2022/01/30 03:00:23;;;;;;;31.55;4.50;;;;;;;;;;4384790;32;20464;-53
2022/01/30 03:02:52;;;;;;;23.98;4.47;;;;;;;;;;4378966;32;20485;-53
2022/01/30 03:05:22;;;;;;;22.33;4.28;;;;;;;;;;4380209;32;20500;-54
2022/01/30 03:07:52;;;;;;;25.52;3.95;;;;;;;;;;4375458;32;20429;-52
2022/01/30 03:10:20;;;;;;;34.05;4.80;;;;;;;;;;4378384;32;20105;-55
2022/01/30 03:12:49;;;;;;;22.60;4.28;;;;;;;;;;4374100;32;20060;-56
2022/01/30 03:15:17;;;;;;;25.77;4.85;;;;;;;;;;4373758;32;20059;-54
2022/01/30 03:17:45;;;;;;;27.58;4.43;;;;;;;;;;4383133;32;20111;-55
2022/01/30 03:20:14;;;;;;;17.65;3.97;;;;;;;;;;4383654;32;20092;-53
2022/01/30 03:22:42;;;;;;;30.05;4.68;;;;;;;;;;4374394;32;20118;-55
2022/01/30 03:25:11;;;;;;;26.50;5.22;;;;;;;;;;4383205;32;20355;-55
2022/01/30 03:27:44;;;;;;;32.92;4.80;;;;;;;;;;4373619;32;20034;-53
2022/01/30 03:30:19;;;;;;;26.65;4.87;;;;;;;;;;4375558;32;20055;-53
2022/01/30 03:32:48;;;;;;;27.33;4.82;;;;;;;;;;4372878;32;20118;-56
2022/01/30 03:35:16;;;;;;;34.67;4.87;;;;;;;;;;4379412;32;20044;-55
2022/01/30 03:37:45;;;;;;;38.00;5.50;;;;;;;;;;4374126;32;20035;-55
2022/01/30 03:40:14;;;;;;;32.10;5.40;;;;;;;;;;4377955;32;20039;-53
2022/01/30 03:42:42;;;;;;;35.80;5.90;;;;;;;;;;4378947;32;20109;-56
2022/01/30 03:45:11;;;;;;;46.37;6.00;;;;;;;;;;4378737;32;20093;-55
2022/01/30 03:47:40;;;;;;;30.35;5.18;;;;;;;;;;4385101;32;20077;-53
2022/01/30 03:50:08;;;;;;;32.60;5.20;;;;;;;;;;4379837;32;20044;-55
2022/01/30 03:52:36;;;;;;;35.47;5.53;;;;;;;;;;4376305;32;20059;-51
2022/01/30 03:55:05;;;;;;;27.40;5.60;;;;;;;;;;4381377;32;20387;-54
2022/01/30 03:57:34;;;;;;;30.58;5.25;;;;;;;;;;4380517;32;20069;-52
2022/01/30 04:00:03;;;;;;;36.30;6.45;;;;;;;;;;4379886;32;20067;-55
2022/01/30 04:02:32;;;;;;;36.85;5.70;;;;;;;;;;4381662;32;20066;-52
2022/01/30 04:05:02;;;;;;;34.85;5.50;;;;;;;;;;4377714;32;20055;-53
2022/01/30 04:07:32;;;;;;;33.50;5.68;;;;;;;;;;4378983;32;20469;-55
2022/01/30 04:10:05;;;;;;;39.55;5.72;;;;;;;;;;4377875;32;20070;-55
2022/01/30 04:12:34;;;;;;;29.55;5.32;;;;;;;;;;4383666;32;20110;-52
2022/01/30 04:15:03;;;;;;;37.38;5.75;;;;;;;;;;4387137;32;20490;-54
2022/01/30 04:17:31;;;;;;;31.48;6.30;;;;;;;;;;4380187;32;20058;-52
2022/01/30 04:20:03;;;;;;;32.03;5.82;;;;;;;;;;4377600;32;20058;-54
2022/01/30 04:22:31;;;;;;;42.15;6.53;;;;;;;;;;4378779;32;20073;-52
2022/01/30 04:25:00;;;;;;;42.88;6.55;;;;;;;;;;4387881;32;20047;-52
2022/01/30 04:27:29;;;;;;;37.65;6.15;;;;;;;;;;4387570;32;20078;-51
2022/01/30 04:29:59;;;;;;;37.30;6.65;;;;;;;;;;4383597;32;20034;-55
2022/01/30 04:32:29;;;;;;;41.28;6.28;;;;;;;;;;4378732;32;20069;-52
2022/01/30 04:34:59;;;;;;;33.92;6.15;;;;;;;;;;4376978;32;20043;-52
2022/01/30 04:37:50;;;;;;;33.60;6.18;;;;;;;;;;4387107;32;20068;-52
2022/01/30 05:07:39;;;;;;;51.45;7.47;;;;;;;;;;4378377;32;20073;-52
2022/01/30 05:10:09;;;;;;;42.42;6.90;;;;;;;;;;4379828;32;20043;-52
2022/01/30 05:12:47;;;;;;;36.30;6.78;;;;;;;;;;4371955;32;20682;-52
2022/01/30 05:15:18;;;;;;;49.08;6.57;;;;;;;;;;4379188;32;20078;-53
2022/01/30 05:17:47;;;;;;;37.10;6.57;;;;;;;;;;4375694;32;20098;-52
2022/01/30 05:20:16;;;;;;;40.17;6.87;;;;;;;;;;4378559;32;20032;-55
2022/01/30 05:22:45;;;;;;;38.03;7.20;;;;;;;;;;4380701;32;20084;-54
2022/01/30 05:25:14;;;;;;;45.50;7.05;;;;;;;;;;4376069;32;20051;-52
2022/01/30 05:27:45;;;;;;;44.15;7.60;;;;;;;;;;4374677;32;20074;-53
2022/01/30 05:30:14;;;;;;;38.80;6.50;;;;;;;;;;4382430;32;20055;-51
2022/01/30 05:32:43;;;;;;;38.38;6.82;;;;;;;;;;4384440;32;20069;-56
2022/01/30 05:35:12;;;;;;;34.40;7.07;;;;;;;;;;4383586;32;20094;-54
2022/01/30 05:37:42;;;;;;;33.08;6.65;;;;;;;;;;4374790;32;20051;-52
2022/01/30 05:40:12;;;;;;;41.78;7.28;;;;;;;;;;4381608;32;20034;-54
2022/01/30 05:42:41;;;;;;;40.45;7.80;;;;;;;;;;4384228;32;20409;-54
2022/01/30 05:47:46;;;;;;;35.88;6.68;;;;;;;;;;4382519;32;20494;-54
2022/01/30 05:50:16;;;;;;;40.60;7.22;;;;;;;;;;4379010;32;20050;-53
2022/01/30 05:52:46;;;;;;;42.40;7.18;;;;;;;;;;4388049;32;20082;-55
2022/01/30 05:55:16;;;;;;;39.25;7.10;;;;;;;;;;4384690;32;20084;-55
2022/01/30 05:57:44;;;;;;;45.00;7.93;;;;;;;;;;4386831;32;20031;-56
2022/01/30 06:00:18;;;;;;;39.15;7.65;;;;;;;;;;4374071;32;20117;-55
2022/01/30 06:02:49;;;;;;;36.72;7.32;;;;;;;;;;4378442;32;20097;-51
2022/01/30 06:05:20;;;;;;;35.17;6.93;;;;;;;;;;4383617;32;20039;-54
2022/01/30 06:07:52;;;;;;;43.60;6.95;;;;;;;;;;4384375;32;20434;-54
2022/01/30 06:10:23;;;;;;;34.78;6.28;;;;;;;;;;4377711;32;20039;-52
2022/01/30 06:12:52;;;;;;;44.70;6.53;;;;;;;;;;4380147;32;20089;-56
2022/01/30 06:15:20;;;;;;;39.05;7.18;;;;;;;;;;4378096;32;20060;-53
2022/01/30 06:17:51;;;;;;;38.17;6.70;;;;;;;;;;4379719;32;20100;-54
2022/01/30 06:20:25;;;;;;;34.67;7.00;;;;;;;;;;4375414;32;20066;-52
2022/01/30 06:22:57;;;;;;;31.92;6.72;;;;;;;;;;4377002;32;20063;-54
2022/01/30 06:25:47;;;;;;;34.10;5.82;;;;;;;;;;4381952;32;20035;-54
2022/01/30 06:28:24;;;;;;;41.92;7.12;;;;;;;;;;4377220;32;20077;-52
2022/01/30 06:30:57;;;;;;;;;;;;;;;;;;4379565;32;20071;-55
2022/01/30 06:33:26;;;;;;;37.15;6.87;;;;;;;;;;4378967;32;20021;-55
2022/01/30 06:36:05;;;;;;;33.65;6.25;;;;;;;;;;4386593;32;20464;-52
2022/01/30 06:38:34;;;;;;;34.15;6.72;;;;;;;;;;4384548;32;20061;-52
2022/01/30 06:41:04;;;;;;;36.22;6.70;;;;;;;;;;4383791;32;20135;-52
2022/01/30 06:43:35;;;;;;;35.47;6.60;;;;;;;;;;4379963;32;20054;-56
2022/01/30 06:46:11;;;;;;;35.78;6.80;;;;;;;;;;4381620;32;20137;-52
2022/01/30 06:48:45;;;;;;;39.75;6.35;;;;;;;;;;4381375;32;20046;-53
2022/01/30 06:51:22;;;;;;;37.60;7.20;;;;;;;;;;4377104;32;20118;-52
2022/01/30 06:53:53;;;;;;;41.20;6.97;;;;;;;;;;4381994;32;20509;-56
2022/01/30 06:56:25;;;;;;;34.17;7.25;;;;;;;;;;4377548;32;20043;-56
2022/01/30 06:59:03;;;;;;;35.85;6.68;;;;;;;;;;4379666;32;20062;-54
2022/01/30 07:01:35;;;;;;;27.67;7.10;;;;;;;;;;4379176;32;20061;-54
2022/01/30 07:04:05;;;;;;;30.12;6.90;;;;;;;;;;4374056;32;20058;-55
2022/01/30 07:06:34;;;;;;;36.65;7.32;;;;;;;;;;4388509;32;20062;-53
2022/01/30 07:09:02;;;;;;;31.50;7.28;;;;;;;;;;4373056;32;20038;-55
2022/01/30 07:11:31;;;;;;;36.13;6.80;;;;;;;;;;4381460;32;20426;-52
2022/01/30 07:13:59;;;;;;;30.52;7.18;;;;;;;;;;4381720;32;20061;-54
2022/01/30 07:16:27;;;;;;;38.95;6.87;;;;;;;;;;4376682;32;20252;-52
2022/01/30 07:18:57;;;;;;;32.60;6.78;;;;;;;;;;4386160;32;20073;-52
2022/01/30 07:21:25;;;;;;;32.75;6.68;;;;;;;;;;4378564;32;20102;-54
2022/01/30 07:23:54;;;;;;;32.65;7.43;;;;;;;;;;4382080;32;20075;-54
2022/01/30 07:26:22;;;;;;;34.25;6.97;;;;;;;;;;4384611;32;20362;-54
2022/01/30 07:28:50;;;;;;;36.20;7.20;;;;;;;;;;4381460;32;20096;-54
2022/01/30 07:31:19;;;;;;;34.17;6.15;;;;;;;;;;4377913;32;20107;-54
2022/01/30 07:33:47;;;;;;;35.10;6.82;;;;;;;;;;4388539;32;20419;-53
2022/01/30 07:36:15;;;;;;;27.87;6.57;;;;;;;;;;4377705;32;20027;-54
2022/01/30 07:38:44;;;;;;;38.13;7.28;;;;;;;;;;4376765;32;20061;-55
2022/01/30 07:41:13;;;;;;;32.55;7.37;;;;;;;;;;4385013;32;20101;-56
2022/01/30 07:43:41;;;;;;;31.33;7.22;;;;;;;;;;4377762;32;20039;-53
2022/01/30 07:46:09;;;;;;;35.25;7.35;;;;;;;;;;4373007;32;20386;-55
2022/01/30 07:48:38;;;;;;;31.48;6.45;;;;;;;;;;4380704;32;20112;-54
2022/01/30 07:51:06;;;;;;;29.75;6.53;;;;;;;;;;4386076;32;20031;-56
2022/01/30 07:53:35;;;;;;;31.95;6.57;;;;;;;;;;4393647;32;20439;-53
2022/01/30 07:56:03;;;;;;;37.85;7.75;;;;;;;;;;4389195;32;20097;-52
2022/01/30 07:58:32;;;;;;;35.60;7.75;;;;;;;;;;4389656;32;20045;-52
2022/01/30 08:01:00;;;;;;;26.40;6.70;;;;;;;;;;4385089;32;20085;-54
2022/01/30 08:03:29;;;;;;;25.98;6.40;;;;;;;;;;4387978;32;20047;-53
2022/01/30 08:05:57;;;;;;;34.40;6.45;;;;;;;;;;4390682;32;20050;-52
2022/01/30 08:08:25;;;;;;;26.10;5.72;;;;;;;;;;4383898;32;20039;-55
2022/01/30 08:10:54;;;;;;;38.10;6.75;;;;;;;;;;4385255;32;20054;-52
2022/01/30 08:13:23;;;;;;;33.90;6.50;;;;;;;;;;4380640;32;20057;-55
2022/01/30 08:15:51;;;;;;;29.67;5.95;;;;;;;;;;4384561;32;20039;-52
2022/01/30 08:18:20;;;;;;;29.58;6.40;;;;;;;;;;4383836;32;20316;-51
2022/01/30 08:20:48;;;;;;;25.15;6.60;;;;;;;;;;4383730;32;20078;-51
2022/01/30 08:23:18;;;;;;;28.70;5.70;;;;;;;;;;4385076;32;20039;-54
2022/01/30 08:25:47;;;;;;;33.45;6.25;;;;;;;;;;4376292;32;20082;-51
2022/01/30 08:28:15;;;;;;;28.40;6.65;;;;;;;;;;4386789;32;20065;-52
2022/01/30 08:30:45;;;;;;;29.75;5.95;;;;;;;;;;4385985;32;20047;-55
2022/01/30 08:33:16;;;;;;;28.17;6.65;;;;;;;;;;4375681;32;20036;-54
2022/01/30 08:35:45;;;;;;;26.10;6.28;;;;;;;;;;4380511;32;20085;-56
2022/01/30 08:38:16;;;;;;;31.05;6.20;;;;;;;;;;4383898;32;20085;-52
2022/01/30 08:40:48;;;;;;;30.15;6.90;;;;;;;;;;4380700;32;20080;-53
2022/01/30 08:43:21;;;;;;;34.15;6.40;;;;;;;;;;4380436;32;20055;-53
2022/01/30 08:45:50;;;;;;;36.60;6.43;;;;;;;;;;4379579;32;20434;-53
2022/01/30 08:48:19;;;;;;;30.77;6.80;;;;;;;;;;4376309;32;20044;-49
2022/01/30 08:50:48;;;;;;;34.55;6.97;;;;;;;;;;4386933;32;20035;-50
2022/01/30 08:53:16;;;;;;;34.25;7.28;;;;;;;;;;4383668;32;20043;-51
2022/01/30 08:55:45;;;;;;;30.88;6.55;;;;;;;;;;4374802;32;20051;-49
2022/01/30 08:58:13;;;;;;;29.65;6.07;;;;;;;;;;4386194;32;20055;-51
2022/01/30 09:00:42;;;;;;;28.00;5.70;;;;;;;;;;4380427;32;20513;-53
2022/01/30 09:03:11;;;;;;;32.03;6.12;;;;;;;;;;4387344;32;20039;-51
2022/01/30 09:05:40;;;;;;;24.77;5.93;;;;;;;;;;4384130;32;20043;-51
2022/01/30 09:08:08;;;;;;;26.73;6.15;;;;;;;;;;4383166;32;20085;-50
2022/01/30 09:10:38;;;;;;;28.80;5.93;;;;;;;;;;4375832;32;20077;-51
2022/01/30 09:13:06;;;;;;;36.25;6.68;;;;;;;;;;4378662;32;20061;-52
2022/01/30 09:15:41;;;;;;;31.40;6.43;;;;;;;;;;4384084;32;20030;-50
2022/01/30 09:18:11;;;;;;;28.87;6.07;;;;;;;;;;4385325;32;20141;-53
2022/01/30 09:20:41;;;;;;;28.92;6.18;;;;;;;;;;4381293;32;20051;-51
2022/01/30 09:23:11;;;;;;;22.42;5.68;;;;;;;;;;4380579;32;20046;-51
2022/01/30 09:25:45;;;;;;;25.88;5.80;;;;;;;;;;4383386;32;20081;-50
2022/01/30 09:28:13;;;;;;;29.10;6.00;;;;;;;;;;4373875;32;20382;-51
2022/01/30 09:30:41;;;;;;;25.08;6.43;;;;;;;;;;4389131;32;20042;-53
2022/01/30 09:33:10;;;;;;;22.62;5.68;;;;;;;;;;4384330;32;20048;-51
2022/01/30 09:35:38;;;;;;;25.50;5.95;;;;;;;;;;4379743;32;20105;-51
2022/01/30 09:38:07;;;;;;;22.83;5.90;;;;;;;;;;4381619;32;20043;-55
2022/01/30 09:40:36;;;;;;;23.55;5.75;;;;;;;;;;4386980;32;20035;-53
2022/01/30 09:43:04;;;;;;;27.05;5.82;;;;;;;;;;4381845;32;20065;-55
2022/01/30 09:45:33;;;;;;;24.75;5.65;;;;;;;;;;4381406;32;20035;-53
2022/01/30 09:48:01;;;;;;;32.55;6.68;;;;;;;;;;4387378;32;20057;-52
2022/01/30 09:50:30;;;;;;;25.10;5.75;;;;;;;;;;4380374;32;20097;-51
2022/01/30 09:52:58;;;;;;;25.98;5.37;;;;;;;;;;4374268;32;20098;-52
2022/01/30 09:55:27;;;;;;;31.70;6.12;;;;;;;;;;4374624;32;20043;-52
2022/01/30 09:57:55;;;;;;;29.30;6.05;;;;;;;;;;4375478;32;20031;-51
2022/01/30 10:00:23;;;;;;;20.33;5.82;;;;;;;;;;4384737;32;20034;-51
2022/01/30 10:02:52;;;;;;;26.00;6.40;;;;;;;;;;4381618;32;20038;-55
2022/01/30 10:05:21;;;;;;;35.00;6.68;;;;;;;;;;4377805;32;20072;-52
2022/01/30 10:07:52;;;;;;;28.62;5.65;;;;;;;;;;4387675;32;20046;-55
2022/01/30 10:10:24;;;;;;;26.00;5.90;;;;;;;;;;4387626;32;20107;-55
2022/01/30 10:13:05;;;;;;;28.35;5.95;;;;;;;;;;4377241;32;20105;-53
2022/01/30 10:15:51;;;;;;;25.35;6.12;;;;;;;;;;4385251;32;20023;-55
2022/01/30 10:18:20;;;;;;;28.65;5.60;;;;;;;;;;4382504;32;20045;-55
2022/01/30 10:20:49;;;;;;;29.05;5.50;;;;;;;;;;4379869;32;20120;-54
2022/01/30 10:23:17;;;;;;;27.40;5.85;;;;;;;;;;4383997;32;20108;-52
2022/01/30 10:25:50;;;;;;;35.80;6.40;;;;;;;;;;4379905;32;20047;-54
2022/01/30 10:28:20;;;;;;;28.38;6.25;;;;;;;;;;4379300;32;20504;-54
2022/01/30 10:30:50;;;;;;;26.83;6.45;;;;;;;;;;4376042;32;20432;-54
2022/01/30 10:33:21;;;;;;;30.70;6.32;;;;;;;;;;4384821;32;20081;-52
2022/01/30 10:35:49;;;;;;;33.13;7.10;;;;;;;;;;4387362;32;20070;-51
2022/01/30 10:38:20;;;;;;;33.78;6.50;;;;;;;;;;4382403;32;20042;-53
2022/01/30 10:41:13;;;;;;;32.15;6.10;;;;;;;;;;4371960;32;20425;-52
2022/01/30 10:43:54;;;;;;;24.60;6.18;;;;;;;;;;4381361;32;20093;-54
2022/01/30 10:46:25;;;;;;;30.30;6.32;;;;;;;;;;4377076;32;20498;-52
2022/01/30 10:49:04;;;;;;;32.80;6.62;;;;;;;;;;4383887;32;20081;-55
2022/01/30 10:51:33;;;;;;;23.40;6.00;;;;;;;;;;4381398;32;20540;-53
2022/01/30 10:54:12;;;;;;;24.05;5.47;;;;;;;;;;4386358;32;20035;-53
2022/01/30 10:56:41;;;;;;;22.40;5.53;;;;;;;;;;4378197;32;20125;-52
2022/01/30 10:59:10;;;;;;;30.67;6.37;;;;;;;;;;4385105;32;20082;-52
2022/01/30 11:01:39;;;;;;;28.60;6.00;;;;;;;;;;4381921;32;20120;-53
2022/01/30 11:04:20;;;;;;;24.85;6.15;;;;;;;;;;4377965;32;20161;-52
2022/01/30 11:06:49;;;;;;;27.05;5.82;;;;;;;;;;4378842;32;20441;-53
2022/01/30 11:09:24;;;;;;;26.92;6.12;;;;;;;;;;4384895;32;20128;-52
2022/01/30 11:12:01;;;;;;;25.90;6.00;;;;;;;;;;4373638;32;20146;-55
2022/01/30 11:14:52;;;;;;;25.75;6.68;;;;;;;;;;4376878;32;20047;-54
2022/01/30 11:17:21;;;;;;;28.40;6.28;;;;;;;;;;4375995;32;20039;-51
2022/01/30 11:19:53;;;;;;;28.50;6.68;;;;;;;;;;4377317;32;20043;-52
2022/01/30 11:22:22;;;;;;;33.38;6.37;;;;;;;;;;4379059;32;20101;-52
2022/01/30 11:25:04;;;;;;;28.70;5.78;;;;;;;;;;4376673;32;20050;-55
2022/01/30 11:27:33;;;;;;;24.42;5.72;;;;;;;;;;4378152;32;20335;-52
2022/01/30 11:30:03;;;;;;;31.02;6.30;;;;;;;;;;4379812;32;20039;-51
2022/01/30 11:32:31;;;;;;;27.95;5.35;;;;;;;;;;4377356;32;20065;-55
2022/01/30 11:35:03;;;;;;;25.77;5.90;;;;;;;;;;4383132;32;20088;-52
2022/01/30 11:37:33;;;;;;;29.30;6.57;;;;;;;;;;4387843;32;20088;-53
2022/01/30 11:40:10;;;;;;;30.02;6.72;;;;;;;;;;4386004;32;20034;-54
2022/01/30 11:42:40;;;;;;;26.05;6.10;;;;;;;;;;4384948;32;20089;-54
2022/01/30 11:45:08;;;;;;;31.27;6.72;;;;;;;;;;4381233;32;20074;-54
2022/01/30 11:48:13;;;;;;;26.60;6.18;;;;;;;;;;4376762;32;20082;-54
2022/01/30 11:50:42;;;;;;;30.77;6.57;;;;;;;;;;4383852;32;20046;-52
2022/01/30 11:53:26;;;;;;;25.05;5.78;;;;;;;;;;4372223;32;20378;-51
2022/01/30 11:56:00;;;;;;;25.62;5.90;;;;;;;;;;4384676;32;20051;-52
2022/01/30 11:58:31;;;;;;;28.50;6.90;;;;;;;;;;4377524;32;20078;-52
2022/01/30 12:01:13;;;;;;;30.45;6.68;;;;;;;;;;4377605;32;20415;-51
2022/01/30 12:03:56;;;;;;;27.52;5.95;;;;;;;;;;4376324;32;20043;-52
2022/01/30 12:06:24;;;;;;;28.50;5.97;;;;;;;;;;4383067;32;20436;-54
2022/01/30 12:08:54;;;;;;;25.45;6.12;;;;;;;;;;4380481;32;20366;-54
2022/01/30 12:11:37;;;;;;;27.45;5.70;;;;;;;;;;4383882;32;20031;-55
2022/01/30 12:14:07;;;;;;;30.57;6.10;;;;;;;;;;4378141;32;20035;-54
2022/01/30 12:16:48;;;;;;;28.70;5.85;;;;;;;;;;4385819;32;20143;-53
2022/01/30 12:19:37;;;;;;;26.33;6.50;;;;;;;;;;4379066;32;20027;-53
2022/01/30 12:22:18;;;;;;;24.42;5.30;;;;;;;;;;4379324;32;20102;-51
2022/01/30 12:24:48;;;;;;;29.00;6.50;;;;;;;;;;4381861;32;20399;-54
2022/01/30 12:27:16;;;;;;;30.12;6.47;;;;;;;;;;4382009;32;20043;-53
2022/01/30 12:29:50;;;;;;;28.40;6.50;;;;;;;;;;4386681;32;20038;-54
2022/01/30 12:32:22;;;;;;;23.60;6.05;;;;;;;;;;4384637;32;20131;-55
2022/01/30 12:34:57;;;;;;;28.83;6.55;;;;;;;;;;4390525;32;20073;-54
2022/01/30 12:37:33;;;;;;;20.80;5.65;;;;;;;;;;4386323;32;20058;-52
2022/01/30 12:40:14;;;;;;;25.48;5.97;;;;;;;;;;4384924;32;20042;-55
2022/01/30 12:42:42;;;;;;;28.85;6.57;;;;;;;;;;4381743;32;20430;-51
2022/01/30 12:45:12;;;;;;;28.83;6.18;;;;;;;;;;4383098;32;20457;-51
2022/01/30 12:48:00;;;;;;;23.33;5.37;;;;;;;;;;4383623;32;20474;-51
2022/01/30 12:50:32;;;;;;;25.00;5.57;;;;;;;;;;4382587;32;20077;-55
2022/01/30 12:53:01;;;;;;;26.52;5.70;;;;;;;;;;4378640;32;20177;-55
2022/01/30 12:55:30;;;;;;;23.02;5.00;;;;;;;;;;4387513;32;20128;-53
2022/01/30 12:57:59;;;;;;;23.95;5.60;;;;;;;;;;4379697;32;20036;-52
2022/01/30 13:00:28;;;;;;;25.37;5.50;;;;;;;;;;4379681;32;20043;-52
2022/01/30 13:02:57;;;;;;;23.75;6.00;;;;;;;;;;4382092;32;20039;-55
2022/01/30 13:05:26;;;;;;;25.90;6.03;;;;;;;;;;4375568;32;20494;-53
2022/01/30 13:07:55;;;;;;;26.92;5.72;;;;;;;;;;4377352;32;20035;-52
2022/01/30 13:10:24;;;;;;;24.55;5.57;;;;;;;;;;4380291;32;20043;-52
2022/01/30 13:12:54;;;;;;;23.62;5.20;;;;;;;;;;4376754;32;20043;-53
2022/01/30 13:15:27;;;;;;;24.67;5.75;;;;;;;;;;4387425;32;20047;-55
2022/01/30 13:17:58;;;;;;;27.85;5.90;;;;;;;;;;4383445;32;20050;-52
2022/01/30 13:20:28;;;;;;;27.20;5.93;;;;;;;;;;4397335;32;20047;-56
2022/01/30 13:22:57;;;;;;;23.52;5.90;;;;;;;;;;4375578;32;20503;-53
2022/01/30 13:25:25;;;;;;;27.60;5.45;;;;;;;;;;4373115;32;20093;-55
2022/01/30 13:27:59;;;;;;;;;;;;;;;;;;4376063;32;20086;-52
2022/01/30 13:30:30;;;;;;;19.75;4.90;;;;;;;;;;4378669;32;19966;-53
2022/01/30 13:32:59;;;;;;;26.25;5.20;;;;;;;;;;4376028;32;20387;-53
2022/01/30 13:35:31;;;;;;;23.87;5.22;;;;;;;;;;4381464;32;20109;-54
2022/01/30 13:38:06;;;;;;;30.30;6.03;;;;;;;;;;4377285;32;20102;-53
2022/01/30 13:40:42;;;;;;;27.75;5.95;;;;;;;;;;4386410;32;20502;-52
2022/01/30 13:43:20;;;;;;;22.65;5.15;;;;;;;;;;4373177;32;20043;-53
2022/01/30 13:48:20;;;;;;;27.65;6.20;;;;;;;;;;4378487;32;20080;-49
2022/01/30 13:50:53;;;;;;;23.52;5.18;;;;;;;;;;4379018;32;20044;-52
2022/01/30 13:53:22;;;;;;;26.27;5.57;;;;;;;;;;4382322;32;20099;-51
2022/01/30 13:56:00;;;;;;;20.00;4.82;;;;;;;;;;4385941;32;20062;-53
2022/01/30 13:58:38;;;;;;;26.30;5.78;;;;;;;;;;4380767;32;20086;-52
2022/01/30 14:01:07;;;;;;;27.05;6.20;;;;;;;;;;4379615;32;20088;-53
2022/01/30 14:03:38;;;;;;;25.65;5.57;;;;;;;;;;4380722;32;20058;-54
2022/01/30 14:06:26;;;;;;;23.75;4.85;;;;;;;;;;4375829;32;20426;-53
2022/01/30 14:08:55;;;;;;;24.05;5.85;;;;;;;;;;4383334;32;20046;-54
2022/01/30 14:11:27;;;;;;;26.65;5.72;;;;;;;;;;4378859;32;20079;-50
2022/01/30 14:14:04;;;;;;;26.52;5.53;;;;;;;;;;4380630;32;20435;-52
2022/01/30 14:16:44;;;;;;;27.23;5.82;;;;;;;;;;4381970;32;20475;-52
2022/01/30 14:19:17;;;;;;;21.98;5.78;;;;;;;;;;4381381;32;20043;-52
2022/01/30 14:21:46;;;;;;;18.10;4.85;;;;;;;;;;4388964;32;20382;-51
2022/01/30 14:24:18;;;;;;;29.67;5.75;;;;;;;;;;4384279;32;20431;-50
2022/01/30 14:26:47;;;;;;;22.77;5.30;;;;;;;;;;4376658;32;20050;-52
2022/01/30 14:29:20;;;;;;;25.70;6.20;;;;;;;;;;4388076;32;20027;-51
2022/01/30 14:31:49;;;;;;;27.42;5.65;;;;;;;;;;4382226;32;20044;-51
2022/01/30 14:34:18;;;;;;;29.25;6.28;;;;;;;;;;4387780;32;20047;-49
2022/01/30 14:36:46;;;;;;;30.15;5.30;;;;;;;;;;4379083;32;20122;-51
2022/01/30 14:39:14;;;;;;;25.15;5.68;;;;;;;;;;4382685;32;20039;-49
2022/01/30 14:41:43;;;;;;;22.62;5.18;;;;;;;;;;4377751;32;20431;-52
2022/01/30 14:44:11;;;;;;;28.20;5.07;;;;;;;;;;4379613;32;20054;-50
2022/01/30 14:46:40;;;;;;;24.67;4.53;;;;;;;;;;4379193;32;20547;-54
2022/01/30 14:49:09;;;;;;;24.98;4.57;;;;;;;;;;4382089;32;20026;-54
2022/01/30 14:51:37;;;;;;;18.10;4.37;;;;;;;;;;4389309;32;20044;-51
2022/01/30 14:54:06;;;;;;;24.60;4.55;;;;;;;;;;4373705;32;20148;-52
2022/01/30 14:56:34;;;;;;;18.67;4.20;;;;;;;;;;4376766;32;20081;-52
2022/01/30 14:59:03;;;;;;;18.15;3.70;;;;;;;;;;4374783;32;20073;-51
2022/01/30 15:01:32;;;;;;;22.00;3.78;;;;;;;;;;4375061;32;20111;-52
2022/01/30 15:04:00;;;;;;;17.60;3.72;;;;;;;;;;4383612;32;20145;-51
2022/01/30 15:06:29;;;;;;;18.60;3.85;;;;;;;;;;4387456;32;20062;-51
2022/01/30 15:08:57;;;;;;;16.70;3.60;;;;;;;;;;4379797;32;20088;-52
2022/01/30 15:11:26;;;;;;;15.60;2.95;;;;;;;;;;4375869;32;20106;-51
2022/01/30 15:13:54;;;;;;;17.87;3.05;;;;;;;;;;4382682;32;20106;-51
2022/01/30 15:16:30;;;;;;;13.02;3.00;;;;;;;;;;4378931;32;20145;-55
2022/01/30 15:18:59;;;;;;;15.38;2.75;;;;;;;;;;4382208;32;20047;-51
2022/01/30 15:21:28;;;;;;;15.13;3.20;;;;;;;;;;4386488;32;20042;-51
2022/01/30 15:23:56;;;;;;;9.82;2.78;;;;;;;;;;4389191;32;20050;-51
2022/01/30 15:26:25;;;;;;;8.02;2.15;;;;;;;;;;4372285;32;20046;-51
2022/01/30 15:28:53;;;;;;;11.40;2.53;;;;;;;;;;4383761;32;20411;-53
2022/01/30 15:31:21;;;;;;;10.98;2.50;;;;;;;;;;4383936;32;20027;-51
2022/01/30 15:33:50;;;;;;;11.45;2.78;;;;;;;;;;4382685;32;20089;-52
2022/01/30 15:36:23;;;;;;;14.00;2.80;;;;;;;;;;4381167;32;20055;-52
2022/01/30 15:38:52;;;;;;;12.18;2.20;;;;;;;;;;4383111;32;20157;-54
2022/01/30 15:41:21;;;;;;;9.75;1.83;;;;;;;;;;4379167;32;20071;-51
2022/01/30 15:43:51;;;;;;;8.18;1.80;;;;;;;;;;4385137;32;20088;-50
2022/01/30 15:49:11;;;;;;;11.05;2.00;;;;;;;;;;4382007;32;20068;-51
2022/01/30 15:51:43;;;;;;;8.00;1.87;;;;;;;;;;4380941;32;20093;-54
2022/01/30 15:54:18;;;;;;;9.27;1.67;;;;;;;;;;4383533;32;20031;-50
2022/01/30 15:56:46;;;;;;;9.52;1.75;;;;;;;;;;4380321;32;20120;-50